createdAt,value
2018-10-01T00:01:35.831Z,11.80
2018-10-01T00:04:05.126Z,11.80
2018-10-01T00:06:34.382Z,11.90
2018-10-01T00:09:03.973Z,11.90
2018-10-01T00:11:33.198Z,11.90
2018-10-01T00:14:02.548Z,12.00
2018-10-01T00:16:31.770Z,12.00
2018-10-01T00:19:01.054Z,12.00
2018-10-01T00:21:35.232Z,12.00
2018-10-01T00:24:04.502Z,12.00
2018-10-01T00:26:33.738Z,12.10
2018-10-01T00:29:03.650Z,12.10
2018-10-01T00:31:32.908Z,12.10
2018-10-01T00:34:02.118Z,12.20
2018-10-01T00:36:31.311Z,12.20
2018-10-01T00:39:00.660Z,12.20
2018-10-01T00:41:29.849Z,12.30
2018-10-01T00:43:59.124Z,12.30
2018-10-01T00:46:28.298Z,12.40
2018-10-01T00:48:57.499Z,12.60
2018-10-01T00:51:26.768Z,12.70
2018-10-01T00:53:56.031Z,12.70
2018-10-01T00:56:25.241Z,12.80
2018-10-01T00:58:54.419Z,12.70
2018-10-01T01:01:24.082Z,12.70
2018-10-01T01:03:53.404Z,12.70
2018-10-01T01:06:22.688Z,12.70
2018-10-01T01:08:51.875Z,12.70
2018-10-01T01:11:22.274Z,12.70
2018-10-01T01:13:51.528Z,12.70
2018-10-01T01:16:20.792Z,12.70
2018-10-01T01:18:50.023Z,12.60
2018-10-01T01:21:19.280Z,12.60
2018-10-01T01:23:48.500Z,12.60
2018-10-01T01:26:17.747Z,12.50
2018-10-01T01:28:46.955Z,12.50
2018-10-01T01:31:16.200Z,12.50
2018-10-01T01:33:45.401Z,12.50
2018-10-01T01:36:14.663Z,12.50
2018-10-01T01:38:43.892Z,12.50
2018-10-01T01:41:13.127Z,12.50
2018-10-01T01:43:42.369Z,12.50
2018-10-01T01:46:11.616Z,12.50
2018-10-01T01:48:40.916Z,12.50
2018-10-01T01:51:10.796Z,12.40
2018-10-01T01:53:40.009Z,12.40
2018-10-01T01:56:09.243Z,12.40
2018-10-01T01:58:38.583Z,12.40
2018-10-01T02:01:07.979Z,12.40
2018-10-01T02:03:37.277Z,12.40
2018-10-01T02:06:06.496Z,12.30
2018-10-01T02:08:35.775Z,12.30
2018-10-01T02:11:05.015Z,12.20
2018-10-01T02:13:34.251Z,12.20
2018-10-01T02:16:03.504Z,12.20
2018-10-01T02:18:32.744Z,12.20
2018-10-01T02:21:01.971Z,12.20
2018-10-01T02:23:31.202Z,12.20
2018-10-01T02:26:00.396Z,12.20
2018-10-01T02:28:29.620Z,12.10
2018-10-01T02:30:58.874Z,12.10
2018-10-01T02:33:28.092Z,12.10
2018-10-01T02:35:57.936Z,12.10
2018-10-01T02:38:27.252Z,12.10
2018-10-01T02:40:56.490Z,12.00
2018-10-01T02:43:25.755Z,12.00
2018-10-01T02:45:54.995Z,12.00
2018-10-01T02:48:24.262Z,12.00
2018-10-01T02:50:53.560Z,12.00
2018-10-01T02:53:27.846Z,11.90
2018-10-01T02:55:57.461Z,11.90
2018-10-01T02:58:26.784Z,11.80
2018-10-01T03:00:55.986Z,11.70
2018-10-01T03:03:25.377Z,11.70
2018-10-01T03:05:54.671Z,11.70
2018-10-01T03:08:23.956Z,11.70
2018-10-01T03:10:53.231Z,11.60
2018-10-01T03:13:22.502Z,11.60
2018-10-01T03:15:51.919Z,11.60
2018-10-01T03:18:21.170Z,11.60
2018-10-01T03:20:51.048Z,11.50
2018-10-01T03:23:20.342Z,11.50
2018-10-01T03:25:49.616Z,11.50
2018-10-01T03:28:18.974Z,11.50
2018-10-01T03:30:48.191Z,11.50
2018-10-01T03:33:17.827Z,11.50
2018-10-01T03:35:47.096Z,11.50
2018-10-01T03:38:16.941Z,11.50
2018-10-01T03:40:46.227Z,11.50
2018-10-01T03:43:15.587Z,11.60
2018-10-01T03:45:44.981Z,11.60
2018-10-01T03:48:14.222Z,11.60
2018-10-01T03:50:43.535Z,11.60
2018-10-01T03:53:12.780Z,11.60
2018-10-01T03:55:42.066Z,11.60
2018-10-01T03:58:11.312Z,11.60
2018-10-01T04:00:40.599Z,11.60
2018-10-01T04:03:09.960Z,11.60
2018-10-01T04:05:39.205Z,11.60
2018-10-01T04:08:08.503Z,11.60
2018-10-01T04:10:37.839Z,11.60
2018-10-01T04:13:07.111Z,11.60
2018-10-01T04:15:36.329Z,11.60
2018-10-01T04:18:06.055Z,11.50
2018-10-01T04:20:35.379Z,11.50
2018-10-01T04:23:04.600Z,11.60
2018-10-01T04:25:33.908Z,11.60
2018-10-01T04:28:03.485Z,11.60
2018-10-01T04:30:32.911Z,11.60
2018-10-01T04:33:02.157Z,11.70
2018-10-01T04:35:31.423Z,11.70
2018-10-01T04:38:00.724Z,11.70
2018-10-01T04:40:30.126Z,11.70
2018-10-01T04:42:59.416Z,11.70
2018-10-01T04:45:28.758Z,11.70
2018-10-01T04:47:58.048Z,11.70
2018-10-01T04:50:27.386Z,11.70
2018-10-01T04:52:56.736Z,11.60
2018-10-01T04:55:25.919Z,11.70
2018-10-01T04:57:56.144Z,11.70
2018-10-01T05:00:26.850Z,11.60
2018-10-01T05:02:56.430Z,11.60
2018-10-01T05:05:25.859Z,11.60
2018-10-01T05:07:55.128Z,11.60
2018-10-01T05:10:24.336Z,11.60
2018-10-01T05:12:53.995Z,11.60
2018-10-01T05:15:23.289Z,11.60
2018-10-01T05:17:52.513Z,11.60
2018-10-01T05:20:21.782Z,11.60
2018-10-01T05:22:51.000Z,11.60
2018-10-01T05:25:20.336Z,11.50
2018-10-01T05:27:49.655Z,11.40
2018-10-01T05:30:18.992Z,11.30
2018-10-01T05:32:48.251Z,11.20
2018-10-01T05:35:19.238Z,11.10
2018-10-01T05:37:48.864Z,11.00
2018-10-01T05:40:18.196Z,11.00
2018-10-01T05:42:48.098Z,11.00
2018-10-01T05:45:18.372Z,11.00
2018-10-01T05:47:47.776Z,10.90
2018-10-01T05:50:18.391Z,10.90
2018-10-01T05:52:47.772Z,10.80
2018-10-01T05:55:20.216Z,10.70
2018-10-01T05:57:50.979Z,10.60
2018-10-01T06:00:20.697Z,10.60
2018-10-01T06:02:51.041Z,10.50
2018-10-01T06:05:24.178Z,10.40
2018-10-01T06:07:59.204Z,10.40
2018-10-01T06:10:29.992Z,10.40
2018-10-01T06:12:59.329Z,10.40
2018-10-01T06:15:28.583Z,10.30
2018-10-01T06:17:57.768Z,10.30
2018-10-01T06:20:27.564Z,10.30
2018-10-01T06:22:56.786Z,10.20
2018-10-01T06:25:25.999Z,10.20
2018-10-01T06:27:55.952Z,10.20
2018-10-01T06:30:25.242Z,10.20
2018-10-01T06:32:54.507Z,10.20
2018-10-01T06:35:24.056Z,10.10
2018-10-01T06:37:53.408Z,10.10
2018-10-01T06:40:23.451Z,10.10
2018-10-01T06:42:52.803Z,10.10
2018-10-01T06:45:22.099Z,10.10
2018-10-01T06:47:51.360Z,10.00
2018-10-01T06:50:20.568Z,9.90
2018-10-01T06:52:50.194Z,9.90
2018-10-01T06:55:19.478Z,9.80
2018-10-01T06:57:48.772Z,9.80
2018-10-01T07:00:18.117Z,9.80
2018-10-01T07:02:47.343Z,9.80
2018-10-01T07:05:16.656Z,9.70
2018-10-01T07:07:45.881Z,9.70
2018-10-01T07:10:15.749Z,9.70
2018-10-01T07:12:45.313Z,9.80
2018-10-01T07:15:14.683Z,9.80
2018-10-01T07:17:44.037Z,9.80
2018-10-01T07:20:13.354Z,9.80
2018-10-01T07:22:43.398Z,9.80
2018-10-01T07:25:12.588Z,9.80
2018-10-01T07:27:41.803Z,9.80
2018-10-01T07:30:11.175Z,9.80
2018-10-01T07:32:40.518Z,9.70
2018-10-01T07:35:09.795Z,9.70
2018-10-01T07:37:38.970Z,9.70
2018-10-01T07:40:08.271Z,9.70
2018-10-01T07:42:37.782Z,9.70
2018-10-01T07:45:07.566Z,9.60
2018-10-01T07:47:36.769Z,9.70
2018-10-01T07:50:07.215Z,9.60
2018-10-01T07:52:36.464Z,9.60
2018-10-01T07:55:06.008Z,9.60
2018-10-01T07:57:35.352Z,9.60
2018-10-01T08:00:04.936Z,9.60
2018-10-01T08:02:34.443Z,9.50
2018-10-01T08:05:03.672Z,9.50
2018-10-01T08:07:32.890Z,9.50
2018-10-01T08:10:02.161Z,9.50
2018-10-01T08:12:31.548Z,9.40
2018-10-01T08:15:00.833Z,9.40
2018-10-01T08:17:30.078Z,9.40
2018-10-01T08:19:59.462Z,9.50
2018-10-01T08:22:28.763Z,9.60
2018-10-01T08:24:58.108Z,9.60
2018-10-01T08:27:27.379Z,9.60
2018-10-01T08:29:56.686Z,9.60
2018-10-01T08:32:25.907Z,9.70
2018-10-01T08:34:55.889Z,9.70
2018-10-01T08:37:25.174Z,9.70
2018-10-01T08:39:54.420Z,9.70
2018-10-01T08:42:23.764Z,9.80
2018-10-01T08:44:53.041Z,9.80
2018-10-01T08:47:22.385Z,9.80
2018-10-01T08:50:00.977Z,9.80
2018-10-01T08:54:41.700Z,9.80
2018-10-01T08:57:12.359Z,9.80
2018-10-01T08:59:41.690Z,9.80
2018-10-01T09:02:10.940Z,9.80
2018-10-01T09:04:40.247Z,9.80
2018-10-01T09:07:09.576Z,9.80
2018-10-01T09:09:38.876Z,9.70
2018-10-01T09:12:08.424Z,9.80
2018-10-01T09:14:37.829Z,9.80
2018-10-01T09:17:07.122Z,9.80
2018-10-01T09:19:36.435Z,9.80
2018-10-01T09:22:05.778Z,9.80
2018-10-01T09:24:35.023Z,9.80
2018-10-01T09:27:04.389Z,9.80
2018-10-01T09:29:33.663Z,9.80
2018-10-01T09:32:02.992Z,9.80
2018-10-01T09:34:32.268Z,9.80
2018-10-01T09:37:01.611Z,9.90
2018-10-01T09:39:30.884Z,9.90
2018-10-01T09:42:00.287Z,9.90
2018-10-01T09:44:29.576Z,9.90
2018-10-01T09:46:58.980Z,9.80
2018-10-01T09:49:28.176Z,9.70
2018-10-01T09:51:57.470Z,9.50
2018-10-01T09:54:27.554Z,9.30
2018-10-01T09:56:57.003Z,9.20
2018-10-01T09:59:26.638Z,9.10
2018-10-01T10:01:55.959Z,9.00
2018-10-01T10:04:25.347Z,9.00
2018-10-01T10:06:54.695Z,8.90
2018-10-01T10:09:24.068Z,8.80
2018-10-01T10:11:53.391Z,8.80
2018-10-01T10:14:22.780Z,8.70
2018-10-01T10:16:52.180Z,8.80
2018-10-01T10:19:21.435Z,8.80
2018-10-01T10:21:50.706Z,8.90
2018-10-01T10:24:19.972Z,8.90
2018-10-01T10:26:49.462Z,8.90
2018-10-01T10:29:18.933Z,8.90
2018-10-01T10:31:48.203Z,8.80
2018-10-01T10:34:17.496Z,8.80
2018-10-01T10:36:46.742Z,8.80
2018-10-01T10:39:16.091Z,8.80
2018-10-01T10:41:45.377Z,8.80
2018-10-01T10:44:14.687Z,8.80
2018-10-01T10:46:44.231Z,8.80
2018-10-01T10:49:14.458Z,8.80
2018-10-01T10:51:43.745Z,8.80
2018-10-01T10:54:13.008Z,8.90
2018-10-01T10:56:42.240Z,9.00
2018-10-01T10:59:11.642Z,9.00
2018-10-01T11:01:40.851Z,9.20
2018-10-01T11:04:10.307Z,9.30
2018-10-01T11:06:39.709Z,9.40
2018-10-01T11:09:10.610Z,9.60
2018-10-01T11:11:40.010Z,9.70
2018-10-01T11:14:09.458Z,9.90
2018-10-01T11:16:38.710Z,10.00
2018-10-01T11:19:08.311Z,10.20
2018-10-01T11:21:37.579Z,10.30
2018-10-01T11:24:06.807Z,10.40
2018-10-01T11:26:36.046Z,10.70
2018-10-01T11:29:05.419Z,10.70
2018-10-01T11:31:34.686Z,10.80
2018-10-01T11:34:03.995Z,11.00
2018-10-01T11:36:33.279Z,11.00
2018-10-01T11:39:02.659Z,10.90
2018-10-01T11:41:33.145Z,10.90
2018-10-01T11:44:02.487Z,10.90
2018-10-01T11:46:31.807Z,10.90
2018-10-01T11:49:01.064Z,10.90
2018-10-01T11:51:30.588Z,11.00
2018-10-01T11:53:59.864Z,10.90
2018-10-01T11:56:29.417Z,11.00
2018-10-01T11:58:58.816Z,11.00
2018-10-01T12:01:28.375Z,11.00
2018-10-01T12:03:57.684Z,11.10
2018-10-01T12:06:27.210Z,11.20
2018-10-01T12:08:56.686Z,11.30
2018-10-01T12:11:26.208Z,11.40
2018-10-01T12:13:55.528Z,11.40
2018-10-01T12:16:24.995Z,11.30
2018-10-01T12:18:54.342Z,11.30
2018-10-01T12:21:23.805Z,11.20
2018-10-01T12:23:53.215Z,11.10
2018-10-01T12:26:22.553Z,11.00
2018-10-01T12:28:51.921Z,11.00
2018-10-01T12:31:22.339Z,11.10
2018-10-01T12:33:51.590Z,11.10
2018-10-01T12:36:21.500Z,11.10
2018-10-01T12:38:51.028Z,11.10
2018-10-01T12:41:20.310Z,11.10
2018-10-01T12:43:49.633Z,11.10
2018-10-01T12:46:18.876Z,11.10
2018-10-01T12:48:48.135Z,11.20
2018-10-01T12:51:17.934Z,11.20
2018-10-01T12:53:47.218Z,11.30
2018-10-01T12:56:16.679Z,11.30
2018-10-01T12:58:45.965Z,11.30
2018-10-01T13:01:15.313Z,11.30
2018-10-01T13:03:44.610Z,11.30
2018-10-01T13:06:14.067Z,11.20
2018-10-01T13:08:43.417Z,11.10
2018-10-01T13:11:12.805Z,11.00
2018-10-01T13:13:42.051Z,10.70
2018-10-01T13:16:11.400Z,10.50
2018-10-01T13:18:40.759Z,10.30
2018-10-01T13:21:10.058Z,10.20
2018-10-01T13:23:39.320Z,10.10
2018-10-01T13:26:08.716Z,10.10
2018-10-01T13:28:38.059Z,10.10
2018-10-01T13:31:07.457Z,10.10
2018-10-01T13:33:37.138Z,10.10
2018-10-01T13:36:06.142Z,10.20
2018-10-01T13:38:35.445Z,10.20
2018-10-01T13:41:04.722Z,10.20
2018-10-01T13:43:34.028Z,10.20
2018-10-01T13:46:03.328Z,10.30
2018-10-01T13:48:32.695Z,10.30
2018-10-01T13:51:02.035Z,10.40
2018-10-01T13:53:31.361Z,10.40
2018-10-01T13:56:00.673Z,10.50
2018-10-01T13:58:29.978Z,10.50
2018-10-01T14:00:59.337Z,10.50
2018-10-01T14:03:28.580Z,10.40
2018-10-01T14:05:57.877Z,10.40
2018-10-01T14:08:27.122Z,10.30
2018-10-01T14:10:56.502Z,10.30
2018-10-01T14:13:26.275Z,10.30
2018-10-01T14:15:55.555Z,10.20
2018-10-01T14:18:24.997Z,10.20
2018-10-01T14:20:54.418Z,10.20
2018-10-01T14:23:24.084Z,10.20
2018-10-01T14:25:53.828Z,10.20
2018-10-01T14:28:23.289Z,10.20
2018-10-01T14:30:52.826Z,10.30
2018-10-01T14:33:22.310Z,10.20
2018-10-01T14:35:51.720Z,10.30
2018-10-01T14:38:21.331Z,10.30
2018-10-01T14:40:50.644Z,10.30
2018-10-01T14:43:19.907Z,10.40
2018-10-01T14:45:49.391Z,10.40
2018-10-01T14:48:19.107Z,10.40
2018-10-01T14:50:48.551Z,10.30
2018-10-01T14:53:17.900Z,10.20
2018-10-01T14:55:47.294Z,10.20
2018-10-01T14:58:16.550Z,10.10
2018-10-01T15:00:46.102Z,10.10
2018-10-01T15:03:15.520Z,10.00
2018-10-01T15:05:44.964Z,10.00
2018-10-01T15:08:14.448Z,9.90
2018-10-01T15:10:43.861Z,10.00
2018-10-01T15:13:13.283Z,10.00
2018-10-01T15:15:42.640Z,10.00
2018-10-01T15:18:11.956Z,10.00
2018-10-01T15:20:41.219Z,10.00
2018-10-01T15:23:10.804Z,10.10
2018-10-01T15:25:40.111Z,10.10
2018-10-01T15:28:09.448Z,10.00
2018-10-01T15:30:38.979Z,10.00
2018-10-01T15:33:08.378Z,10.10
2018-10-01T15:35:37.644Z,10.10
2018-10-01T15:38:06.948Z,10.10
2018-10-01T15:40:36.222Z,10.00
2018-10-01T15:43:05.653Z,10.00
2018-10-01T15:45:35.057Z,10.00
2018-10-01T15:48:04.445Z,10.00
2018-10-01T15:50:33.715Z,10.00
2018-10-01T15:53:03.026Z,10.00
2018-10-01T15:55:32.336Z,10.00
2018-10-01T15:58:01.798Z,10.00
2018-10-01T16:00:31.144Z,10.00
2018-10-01T16:03:00.411Z,9.90
2018-10-01T16:05:29.685Z,9.80
2018-10-01T16:07:58.979Z,9.60
2018-10-01T16:10:28.216Z,9.50
2018-10-01T16:12:57.606Z,9.40
2018-10-01T16:15:26.837Z,9.20
2018-10-01T16:17:56.532Z,9.10
2018-10-01T16:20:25.874Z,9.10
2018-10-01T16:22:55.281Z,9.00
2018-10-01T16:25:24.828Z,8.90
2018-10-01T16:27:54.183Z,8.90
2018-10-01T16:30:23.520Z,8.80
2018-10-01T16:32:52.874Z,8.90
2018-10-01T16:35:22.458Z,8.80
2018-10-01T16:37:51.867Z,8.90
2018-10-01T16:40:21.171Z,8.90
2018-10-01T16:42:50.677Z,8.90
2018-10-01T16:45:19.990Z,8.90
2018-10-01T16:47:50.861Z,8.90
2018-10-01T16:50:20.319Z,8.90
2018-10-01T16:52:49.587Z,8.90
2018-10-01T16:55:18.932Z,9.00
2018-10-01T16:57:48.251Z,8.90
2018-10-01T17:00:17.800Z,8.90
2018-10-01T17:02:47.436Z,8.90
2018-10-01T17:05:16.843Z,8.90
2018-10-01T17:07:46.144Z,8.90
2018-10-01T17:10:15.721Z,9.00
2018-10-01T17:12:44.988Z,9.00
2018-10-01T17:15:14.397Z,9.00
2018-10-01T17:17:43.689Z,9.00
2018-10-01T17:20:13.027Z,9.00
2018-10-01T17:22:42.280Z,9.00
2018-10-01T17:25:11.563Z,8.90
2018-10-01T17:27:40.872Z,8.90
2018-10-01T17:30:10.348Z,8.90
2018-10-01T17:32:39.620Z,8.90
2018-10-01T17:35:09.123Z,8.90
2018-10-01T17:37:38.631Z,8.90
2018-10-01T17:40:07.984Z,8.90
2018-10-01T17:42:37.319Z,8.90
2018-10-01T17:45:06.761Z,8.90
2018-10-01T17:47:36.216Z,8.90
2018-10-01T17:50:06.639Z,8.90
2018-10-01T17:52:36.861Z,8.80
2018-10-01T17:55:06.892Z,8.80
2018-10-01T17:57:36.465Z,8.80
2018-10-01T18:00:06.937Z,8.80
2018-10-01T18:02:36.968Z,8.80
2018-10-01T18:05:07.091Z,8.70
2018-10-01T18:07:36.825Z,8.70
2018-10-01T18:10:06.873Z,8.70
2018-10-01T18:12:44.047Z,8.70
2018-10-01T18:15:19.795Z,8.60
2018-10-01T18:17:50.071Z,8.60
2018-10-01T18:23:02.656Z,8.50
2018-10-01T18:28:08.341Z,8.50
2018-10-01T18:30:39.148Z,8.50
2018-10-01T18:33:09.708Z,8.50
2018-10-01T18:35:45.620Z,8.50
2018-10-01T18:38:15.783Z,8.60
2018-10-01T18:40:45.633Z,8.60
2018-10-01T18:43:15.429Z,8.60
2018-10-01T18:45:50.356Z,8.60
2018-10-01T18:48:20.260Z,8.60
2018-10-01T18:50:51.394Z,8.60
2018-10-01T18:53:25.801Z,8.50
2018-10-01T18:56:00.423Z,8.50
2018-10-01T18:58:32.162Z,8.60
2018-10-01T19:01:08.527Z,8.60
2018-10-01T19:03:39.333Z,8.60
2018-10-01T19:06:11.189Z,8.50
2018-10-01T19:08:42.664Z,8.50
2018-10-01T19:11:15.730Z,8.50
2018-10-01T19:13:49.509Z,8.40
2018-10-01T19:16:19.127Z,8.40
2018-10-01T19:18:48.848Z,8.50
2018-10-01T19:21:18.509Z,8.50
2018-10-01T19:23:47.963Z,8.50
2018-10-01T19:26:17.581Z,8.50
2018-10-01T19:28:47.200Z,8.50
2018-10-01T19:31:16.927Z,8.50
2018-10-01T19:33:46.634Z,8.50
2018-10-01T19:36:16.310Z,8.50
2018-10-01T19:38:46.284Z,8.60
2018-10-01T19:41:15.995Z,8.60
2018-10-01T19:43:49.757Z,8.50
2018-10-01T19:46:33.408Z,8.50
2018-10-01T19:51:46.268Z,8.70
2018-10-01T19:54:20.681Z,8.60
2018-10-01T20:00:05.140Z,8.60
2018-10-01T20:05:49.960Z,8.70
2018-10-01T20:08:30.245Z,8.60
2018-10-01T20:11:00.252Z,8.50
2018-10-01T20:13:29.591Z,8.50
2018-10-01T20:15:59.077Z,8.40
2018-10-01T20:18:28.305Z,8.30
2018-10-01T20:20:59.302Z,8.30
2018-10-01T20:23:29.336Z,8.20
2018-10-01T20:25:59.480Z,8.30
2018-10-01T20:28:29.584Z,8.20
2018-10-01T20:30:59.294Z,8.20
2018-10-01T20:33:29.077Z,8.10
2018-10-01T20:35:59.325Z,8.10
2018-10-01T20:38:29.044Z,8.00
2018-10-01T20:40:58.858Z,8.00
2018-10-01T20:43:29.096Z,8.00
2018-10-01T20:45:58.965Z,8.00
2018-10-01T20:48:28.856Z,8.00
2018-10-01T20:50:58.595Z,8.00
2018-10-01T20:53:37.886Z,8.10
2018-10-01T20:56:08.106Z,8.10
2018-10-01T20:58:37.734Z,8.10
2018-10-01T21:01:07.700Z,8.10
2018-10-01T21:03:37.422Z,8.20
2018-10-01T21:06:07.530Z,8.20
2018-10-01T21:08:37.325Z,8.20
2018-10-01T21:11:07.207Z,8.20
2018-10-01T21:13:37.137Z,8.20
2018-10-01T21:16:06.895Z,8.20
2018-10-01T21:18:37.578Z,8.20
2018-10-01T21:21:07.321Z,8.20
2018-10-01T21:23:38.223Z,8.20
2018-10-01T21:26:08.809Z,8.20
2018-10-01T21:28:38.651Z,8.30
2018-10-01T21:31:08.586Z,8.30
2018-10-01T21:33:38.642Z,8.30
2018-10-01T21:36:08.033Z,8.20
2018-10-01T21:38:40.518Z,8.00
2018-10-01T21:41:10.127Z,7.80
2018-10-01T21:43:39.406Z,7.70
2018-10-01T21:46:08.907Z,7.60
2018-10-01T21:48:38.272Z,7.40
2018-10-01T21:51:07.682Z,7.40
2018-10-01T21:53:37.061Z,7.30
2018-10-01T21:56:06.312Z,7.20
2018-10-01T21:58:35.559Z,7.20
2018-10-01T22:01:10.041Z,7.20
2018-10-01T22:03:39.349Z,7.20
2018-10-01T22:06:08.708Z,7.20
2018-10-01T22:08:37.922Z,7.20
2018-10-01T22:11:07.227Z,7.20
2018-10-01T22:13:36.476Z,7.20
2018-10-01T22:16:05.683Z,7.20
2018-10-01T22:18:34.928Z,7.20
2018-10-01T22:21:07.843Z,7.20
2018-10-01T22:23:37.106Z,7.10
2018-10-01T22:26:06.444Z,7.10
2018-10-01T22:28:35.771Z,7.10
2018-10-01T22:31:05.384Z,7.20
2018-10-01T22:33:35.020Z,7.20
2018-10-01T22:36:04.402Z,7.20
2018-10-01T22:38:33.703Z,7.20
2018-10-01T22:41:02.978Z,7.30
2018-10-01T22:43:32.542Z,7.30
2018-10-01T22:46:01.810Z,7.30
2018-10-01T22:48:31.043Z,7.30
2018-10-01T22:51:00.395Z,7.30
2018-10-01T22:53:30.051Z,7.30
2018-10-01T22:55:59.394Z,7.30
2018-10-01T22:58:28.628Z,7.30
2018-10-01T23:00:57.942Z,7.30
2018-10-01T23:03:27.236Z,7.40
2018-10-01T23:05:56.487Z,7.40
2018-10-01T23:08:25.730Z,7.30
2018-10-01T23:10:54.919Z,7.30
2018-10-01T23:13:24.263Z,7.30
2018-10-01T23:15:53.488Z,7.20
2018-10-01T23:18:22.784Z,7.20
2018-10-01T23:20:51.979Z,7.20
2018-10-01T23:23:22.110Z,7.20
2018-10-01T23:25:51.293Z,7.20
2018-10-01T23:28:20.508Z,7.20
2018-10-01T23:30:49.719Z,7.20
2018-10-01T23:33:30.363Z,7.20
2018-10-01T23:35:59.737Z,7.20
2018-10-01T23:38:29.119Z,7.30
2018-10-01T23:40:58.283Z,7.30
2018-10-01T23:43:27.478Z,7.30
2018-10-01T23:45:56.715Z,7.20
2018-10-01T23:48:25.972Z,7.20
2018-10-01T23:50:55.210Z,7.20
2018-10-01T23:53:24.373Z,7.10
2018-10-01T23:55:53.608Z,7.10
2018-10-01T23:58:22.802Z,7.10
